sensor_id;sensor_type;location;lat;lon;timestamp;pressure;altitude;pressure_sealevel;temperature;humidity
64294;BME280;50636;45.596;5.258;2023-03-15T00:00:07;98750.22;;;7.78;76.02
64294;BME280;50636;45.596;5.258;2023-03-15T00:02:47;98749.34;;;7.86;75.22
64294;BME280;50636;45.596;5.258;2023-03-15T00:05:32;98761.03;;;7.90;74.61
64294;BME280;50636;45.596;5.258;2023-03-15T00:07:59;98763.84;;;7.88;74.40
64294;BME280;50636;45.596;5.258;2023-03-15T00:10:45;98764.38;;;7.84;74.72
64294;BME280;50636;45.596;5.258;2023-03-15T00:13:13;98759.59;;;7.72;73.80
64294;BME280;50636;45.596;5.258;2023-03-15T00:15:57;98757.16;;;7.56;73.51
64294;BME280;50636;45.596;5.258;2023-03-15T00:18:24;98771.56;;;7.37;74.26
64294;BME280;50636;45.596;5.258;2023-03-15T00:20:52;98777.59;;;7.37;75.50
64294;BME280;50636;45.596;5.258;2023-03-15T00:23:19;98781.19;;;7.36;75.24
64294;BME280;50636;45.596;5.258;2023-03-15T00:25:48;98784.94;;;7.34;75.03
64294;BME280;50636;45.596;5.258;2023-03-15T00:28:16;98793.41;;;7.36;75.59
64294;BME280;50636;45.596;5.258;2023-03-15T00:31:19;98790.56;;;7.46;75.85
64294;BME280;50636;45.596;5.258;2023-03-15T00:34:04;98798.06;;;7.49;74.73
64294;BME280;50636;45.596;5.258;2023-03-15T00:36:33;98795.06;;;7.52;74.91
64294;BME280;50636;45.596;5.258;2023-03-15T00:39:00;98799.41;;;7.59;75.50
64294;BME280;50636;45.596;5.258;2023-03-15T00:41:26;98811.41;;;7.69;74.85
64294;BME280;50636;45.596;5.258;2023-03-15T00:44:06;98818.88;;;7.72;74.37
64294;BME280;50636;45.596;5.258;2023-03-15T00:46:45;98813.66;;;7.72;74.33
64294;BME280;50636;45.596;5.258;2023-03-15T00:49:11;98811.66;;;7.74;74.34
64294;BME280;50636;45.596;5.258;2023-03-15T00:51:38;98812.75;;;7.79;73.91
64294;BME280;50636;45.596;5.258;2023-03-15T00:54:26;98808.44;;;7.87;74.27
64294;BME280;50636;45.596;5.258;2023-03-15T00:57:00;98810.88;;;8.03;73.45
64294;BME280;50636;45.596;5.258;2023-03-15T00:59:32;98820.78;;;8.23;73.52
64294;BME280;50636;45.596;5.258;2023-03-15T01:02:08;98815.72;;;8.36;73.10
64294;BME280;50636;45.596;5.258;2023-03-15T01:04:35;98799.41;;;8.49;73.97
64294;BME280;50636;45.596;5.258;2023-03-15T01:07:04;98798.41;;;8.50;75.17
64294;BME280;50636;45.596;5.258;2023-03-15T01:09:36;98805.19;;;8.29;77.42
64294;BME280;50636;45.596;5.258;2023-03-15T01:12:02;98800.88;;;7.92;79.13
64294;BME280;50636;45.596;5.258;2023-03-15T01:14:49;98797.94;;;7.42;80.24
64294;BME280;50636;45.596;5.258;2023-03-15T01:17:25;98804.47;;;7.00;81.99
64294;BME280;50636;45.596;5.258;2023-03-15T01:19:57;98802.59;;;6.86;83.48
64294;BME280;50636;45.596;5.258;2023-03-15T01:22:23;98811.28;;;6.78;83.65
64294;BME280;50636;45.596;5.258;2023-03-15T01:24:49;98804.09;;;6.80;84.46
64294;BME280;50636;45.596;5.258;2023-03-15T01:27:24;98815.47;;;6.87;85.17
64294;BME280;50636;45.596;5.258;2023-03-15T01:30:06;98814.16;;;6.91;85.52
64294;BME280;50636;45.596;5.258;2023-03-15T01:32:41;98812.50;;;6.98;86.00
64294;BME280;50636;45.596;5.258;2023-03-15T01:35:18;98807.06;;;7.00;86.12
64294;BME280;50636;45.596;5.258;2023-03-15T01:37:44;98799.72;;;7.04;86.34
64294;BME280;50636;45.596;5.258;2023-03-15T01:40:13;98793.00;;;7.09;85.97
64294;BME280;50636;45.596;5.258;2023-03-15T01:48:56;98794.38;;;6.97;83.69
64294;BME280;50636;45.596;5.258;2023-03-15T01:54:28;98800.59;;;6.73;83.27
64294;BME280;50636;45.596;5.258;2023-03-15T01:57:47;98800.31;;;6.59;84.93
64294;BME280;50636;45.596;5.258;2023-03-15T02:00:17;98808.34;;;6.50;85.26
64294;BME280;50636;45.596;5.258;2023-03-15T02:03:35;98815.78;;;6.38;85.58
64294;BME280;50636;45.596;5.258;2023-03-15T02:06:08;98804.53;;;6.29;85.88
64294;BME280;50636;45.596;5.258;2023-03-15T02:08:56;98809.47;;;6.24;86.11
64294;BME280;50636;45.596;5.258;2023-03-15T02:11:26;98805.41;;;6.13;86.51
64294;BME280;50636;45.596;5.258;2023-03-15T02:14:02;98803.16;;;6.10;86.42
64294;BME280;50636;45.596;5.258;2023-03-15T02:16:33;98803.00;;;6.04;86.46
64294;BME280;50636;45.596;5.258;2023-03-15T02:19:17;98811.69;;;5.96;86.84
64294;BME280;50636;45.596;5.258;2023-03-15T02:22:37;98805.81;;;5.86;87.55
64294;BME280;50636;45.596;5.258;2023-03-15T02:28:30;98805.19;;;5.84;88.33
64294;BME280;50636;45.596;5.258;2023-03-15T02:31:00;98802.38;;;5.85;88.26
64294;BME280;50636;45.596;5.258;2023-03-15T02:33:50;98803.38;;;5.84;88.38
64294;BME280;50636;45.596;5.258;2023-03-15T02:36:34;98798.69;;;5.79;87.86
64294;BME280;50636;45.596;5.258;2023-03-15T02:39:32;98800.34;;;5.64;88.24
64294;BME280;50636;45.596;5.258;2023-03-15T02:42:04;98802.78;;;5.49;88.46
64294;BME280;50636;45.596;5.258;2023-03-15T02:44:40;98797.75;;;5.48;88.69
64294;BME280;50636;45.596;5.258;2023-03-15T02:47:37;98801.00;;;5.50;88.95
64294;BME280;50636;45.596;5.258;2023-03-15T02:50:11;98806.88;;;5.44;88.98
64294;BME280;50636;45.596;5.258;2023-03-15T02:52:37;98810.13;;;5.37;89.39
64294;BME280;50636;45.596;5.258;2023-03-15T02:55:26;98817.75;;;5.31;89.39
64294;BME280;50636;45.596;5.258;2023-03-15T02:58:01;98817.44;;;5.26;89.16
64294;BME280;50636;45.596;5.258;2023-03-15T03:00:30;98813.38;;;5.23;89.56
64294;BME280;50636;45.596;5.258;2023-03-15T03:03:14;98813.22;;;5.25;89.38
64294;BME280;50636;45.596;5.258;2023-03-15T03:05:40;98816.66;;;5.25;90.01
64294;BME280;50636;45.596;5.258;2023-03-15T03:08:12;98821.16;;;5.23;90.16
64294;BME280;50636;45.596;5.258;2023-03-15T03:10:50;98818.75;;;5.22;89.59
64294;BME280;50636;45.596;5.258;2023-03-15T03:13:21;98828.50;;;5.28;90.03
64294;BME280;50636;45.596;5.258;2023-03-15T03:16:10;98832.56;;;5.30;89.59
64294;BME280;50636;45.596;5.258;2023-03-15T03:19:00;98825.72;;;5.21;89.26
64294;BME280;50636;45.596;5.258;2023-03-15T03:21:42;98838.72;;;5.05;88.61
64294;BME280;50636;45.596;5.258;2023-03-15T03:24:11;98832.41;;;4.99;89.38
64294;BME280;50636;45.596;5.258;2023-03-15T03:26:47;98834.50;;;4.95;88.92
64294;BME280;50636;45.596;5.258;2023-03-15T03:29:16;98833.19;;;4.91;89.74
64294;BME280;50636;45.596;5.258;2023-03-15T03:31:55;98835.59;;;4.93;89.45
64294;BME280;50636;45.596;5.258;2023-03-15T03:34:28;98839.69;;;4.95;89.48
64294;BME280;50636;45.596;5.258;2023-03-15T03:36:59;98842.75;;;4.91;89.73
64294;BME280;50636;45.596;5.258;2023-03-15T03:39:27;98845.03;;;4.86;89.76
64294;BME280;50636;45.596;5.258;2023-03-15T03:42:00;98840.97;;;4.83;89.60
64294;BME280;50636;45.596;5.258;2023-03-15T03:44:40;98845.19;;;4.84;89.93
64294;BME280;50636;45.596;5.258;2023-03-15T03:47:12;98854.78;;;4.84;89.85
64294;BME280;50636;45.596;5.258;2023-03-15T03:49:42;98848.75;;;4.75;90.01
64294;BME280;50636;45.596;5.258;2023-03-15T03:52:12;98852.63;;;4.71;89.97
64294;BME280;50636;45.596;5.258;2023-03-15T03:54:42;98853.91;;;4.67;90.32
64294;BME280;50636;45.596;5.258;2023-03-15T03:57:15;98857.34;;;4.67;90.88
64294;BME280;50636;45.596;5.258;2023-03-15T03:59:46;98852.16;;;4.67;90.33
64294;BME280;50636;45.596;5.258;2023-03-15T04:02:17;98851.66;;;4.64;90.15
64294;BME280;50636;45.596;5.258;2023-03-15T04:04:52;98847.88;;;4.58;89.73
64294;BME280;50636;45.596;5.258;2023-03-15T04:07:23;98842.53;;;4.59;90.17
64294;BME280;50636;45.596;5.258;2023-03-15T04:09:59;98839.09;;;4.51;90.00
64294;BME280;50636;45.596;5.258;2023-03-15T04:12:33;98841.00;;;4.40;89.54
64294;BME280;50636;45.596;5.258;2023-03-15T04:15:10;98842.75;;;4.32;89.42
64294;BME280;50636;45.596;5.258;2023-03-15T04:17:37;98845.97;;;4.26;89.90
64294;BME280;50636;45.596;5.258;2023-03-15T04:20:08;98843.06;;;4.20;90.19
64294;BME280;50636;45.596;5.258;2023-03-15T04:22:39;98826.38;;;4.31;91.15
64294;BME280;50636;45.596;5.258;2023-03-15T04:25:07;98829.09;;;4.30;90.54
64294;BME280;50636;45.596;5.258;2023-03-15T04:27:39;98828.47;;;4.36;89.63
64294;BME280;50636;45.596;5.258;2023-03-15T04:30:14;98835.47;;;4.35;89.44
64294;BME280;50636;45.596;5.258;2023-03-15T04:32:49;98839.16;;;4.25;89.21
64294;BME280;50636;45.596;5.258;2023-03-15T04:35:47;98841.00;;;4.06;89.59
64294;BME280;50636;45.596;5.258;2023-03-15T04:38:23;98841.28;;;3.95;90.29
64294;BME280;50636;45.596;5.258;2023-03-15T04:41:25;98849.88;;;3.95;89.90
64294;BME280;50636;45.596;5.258;2023-03-15T04:44:10;98845.00;;;3.92;90.19
64294;BME280;50636;45.596;5.258;2023-03-15T04:47:10;98842.06;;;3.87;90.29
64294;BME280;50636;45.596;5.258;2023-03-15T04:53:02;98829.53;;;3.83;90.59
64294;BME280;50636;45.596;5.258;2023-03-15T04:55:39;98832.44;;;3.79;90.93
64294;BME280;50636;45.596;5.258;2023-03-15T04:58:12;98827.38;;;3.78;90.88
64294;BME280;50636;45.596;5.258;2023-03-15T05:00:44;98832.38;;;3.71;90.63
64294;BME280;50636;45.596;5.258;2023-03-15T05:03:29;98832.34;;;3.63;90.44
64294;BME280;50636;45.596;5.258;2023-03-15T05:09:22;98845.69;;;3.68;91.05
64294;BME280;50636;45.596;5.258;2023-03-15T05:12:40;98841.06;;;3.62;90.59
64294;BME280;50636;45.596;5.258;2023-03-15T05:15:20;98844.38;;;3.46;91.10
64294;BME280;50636;45.596;5.258;2023-03-15T05:17:47;98831.56;;;3.45;91.47
64294;BME280;50636;45.596;5.258;2023-03-15T05:20:19;98832.75;;;3.50;91.39
64294;BME280;50636;45.596;5.258;2023-03-15T05:22:50;98837.75;;;3.52;91.05
64294;BME280;50636;45.596;5.258;2023-03-15T05:25:31;98836.59;;;3.46;90.30
64294;BME280;50636;45.596;5.258;2023-03-15T05:28:11;98841.03;;;3.36;91.02
64294;BME280;50636;45.596;5.258;2023-03-15T05:30:44;98837.88;;;3.42;91.04
64294;BME280;50636;45.596;5.258;2023-03-15T05:33:11;98853.22;;;3.62;91.37
64294;BME280;50636;45.596;5.258;2023-03-15T05:49:04;98876.50;;;3.71;86.65
64294;BME280;50636;45.596;5.258;2023-03-15T05:51:30;98883.91;;;3.66;87.49
64294;BME280;50636;45.596;5.258;2023-03-15T05:53:55;98881.41;;;3.74;88.06
64294;BME280;50636;45.596;5.258;2023-03-15T05:56:21;98881.59;;;3.81;88.19
64294;BME280;50636;45.596;5.258;2023-03-15T05:58:46;98893.47;;;3.84;88.10
64294;BME280;50636;45.596;5.258;2023-03-15T06:01:12;98885.66;;;3.84;88.09
64294;BME280;50636;45.596;5.258;2023-03-15T06:03:38;98883.88;;;3.84;88.26
64294;BME280;50636;45.596;5.258;2023-03-15T06:06:03;98884.19;;;3.81;88.04
64294;BME280;50636;45.596;5.258;2023-03-15T06:08:29;98885.72;;;3.92;88.28
64294;BME280;50636;45.596;5.258;2023-03-15T06:10:55;98885.63;;;4.02;88.08
64294;BME280;50636;45.596;5.258;2023-03-15T06:13:21;98881.00;;;4.13;88.19
64294;BME280;50636;45.596;5.258;2023-03-15T06:15:47;98886.41;;;4.28;88.54
64294;BME280;50636;45.596;5.258;2023-03-15T06:18:13;98886.00;;;4.41;87.79
64294;BME280;50636;45.596;5.258;2023-03-15T06:20:39;98887.97;;;4.47;87.32
64294;BME280;50636;45.596;5.258;2023-03-15T06:23:05;98887.53;;;4.60;87.39
64294;BME280;50636;45.596;5.258;2023-03-15T06:25:31;98886.53;;;5.04;87.42
64294;BME280;50636;45.596;5.258;2023-03-15T06:27:57;98889.66;;;5.48;87.41
64294;BME280;50636;45.596;5.258;2023-03-15T06:30:23;98888.94;;;6.28;86.26
64294;BME280;50636;45.596;5.258;2023-03-15T06:32:50;98896.44;;;7.71;84.60
64294;BME280;50636;45.596;5.258;2023-03-15T06:35:16;98896.59;;;9.18;81.99
64294;BME280;50636;45.596;5.258;2023-03-15T06:37:41;98898.66;;;10.57;77.08
64294;BME280;50636;45.596;5.258;2023-03-15T06:40:08;98893.03;;;11.69;73.86
64294;BME280;50636;45.596;5.258;2023-03-15T06:42:36;98901.47;;;12.51;68.31
64294;BME280;50636;45.596;5.258;2023-03-15T06:45:03;98895.22;;;13.29;65.88
64294;BME280;50636;45.596;5.258;2023-03-15T06:47:29;98891.78;;;13.60;63.60
64294;BME280;50636;45.596;5.258;2023-03-15T06:49:55;98900.94;;;13.57;62.15
64294;BME280;50636;45.596;5.258;2023-03-15T06:52:20;98908.94;;;13.06;59.74
64294;BME280;50636;45.596;5.258;2023-03-15T06:54:46;98901.28;;;12.46;58.42
64294;BME280;50636;45.596;5.258;2023-03-15T06:57:12;98903.19;;;11.92;57.52
64294;BME280;50636;45.596;5.258;2023-03-15T06:59:37;98909.84;;;11.74;59.90
64294;BME280;50636;45.596;5.258;2023-03-15T07:02:03;98912.06;;;12.24;60.92
64294;BME280;50636;45.596;5.258;2023-03-15T07:04:29;98916.16;;;12.78;60.04
64294;BME280;50636;45.596;5.258;2023-03-15T07:06:55;98924.09;;;13.17;57.23
64294;BME280;50636;45.596;5.258;2023-03-15T07:09:21;98923.47;;;13.15;54.92
64294;BME280;50636;45.596;5.258;2023-03-15T07:11:47;98922.25;;;13.17;55.94
64294;BME280;50636;45.596;5.258;2023-03-15T07:14:12;98924.28;;;13.54;54.34
64294;BME280;50636;45.596;5.258;2023-03-15T07:16:38;98933.19;;;14.10;52.91
64294;BME280;50636;45.596;5.258;2023-03-15T07:19:03;98929.53;;;14.73;51.74
64294;BME280;50636;45.596;5.258;2023-03-15T07:21:29;98926.94;;;15.45;50.49
64294;BME280;50636;45.596;5.258;2023-03-15T07:23:55;98924.88;;;16.01;48.74
64294;BME280;50636;45.596;5.258;2023-03-15T07:26:20;98920.25;;;16.55;47.50
64294;BME280;50636;45.596;5.258;2023-03-15T07:28:46;98921.16;;;17.13;45.27
64294;BME280;50636;45.596;5.258;2023-03-15T07:31:12;98920.97;;;17.66;43.93
64294;BME280;50636;45.596;5.258;2023-03-15T07:33:39;98912.72;;;18.35;42.42
64294;BME280;50636;45.596;5.258;2023-03-15T07:36:06;98911.41;;;18.99;41.33
64294;BME280;50636;45.596;5.258;2023-03-15T07:38:33;98911.47;;;19.58;39.38
64294;BME280;50636;45.596;5.258;2023-03-15T07:41:04;98908.41;;;19.44;38.57
64294;BME280;50636;45.596;5.258;2023-03-15T07:43:30;98905.97;;;19.70;37.44
64294;BME280;50636;45.596;5.258;2023-03-15T07:45:56;98906.81;;;19.75;36.70
64294;BME280;50636;45.596;5.258;2023-03-15T07:48:21;98916.44;;;19.49;37.22
64294;BME280;50636;45.596;5.258;2023-03-15T07:50:47;98920.94;;;19.49;36.33
64294;BME280;50636;45.596;5.258;2023-03-15T07:53:13;98923.16;;;19.89;35.47
64294;BME280;50636;45.596;5.258;2023-03-15T07:55:39;98920.56;;;20.42;34.78
64294;BME280;50636;45.596;5.258;2023-03-15T07:58:04;98920.47;;;20.69;33.54
64294;BME280;50636;45.596;5.258;2023-03-15T08:00:31;98925.25;;;20.67;32.76
64294;BME280;50636;45.596;5.258;2023-03-15T08:02:57;98920.41;;;20.64;33.53
64294;BME280;50636;45.596;5.258;2023-03-15T08:05:23;98926.50;;;20.54;32.92
64294;BME280;50636;45.596;5.258;2023-03-15T08:07:49;98926.09;;;20.78;32.22
64294;BME280;50636;45.596;5.258;2023-03-15T08:10:16;98920.22;;;19.86;33.46
64294;BME280;50636;45.596;5.258;2023-03-15T08:12:42;98928.59;;;18.91;35.38
64294;BME280;50636;45.596;5.258;2023-03-15T08:15:12;98925.75;;;19.20;35.82
64294;BME280;50636;45.596;5.258;2023-03-15T08:17:39;98916.56;;;19.65;34.94
64294;BME280;50636;45.596;5.258;2023-03-15T08:20:05;98916.53;;;20.34;34.89
64294;BME280;50636;45.596;5.258;2023-03-15T08:22:36;98917.16;;;21.30;33.49
64294;BME280;50636;45.596;5.258;2023-03-15T08:25:04;98916.66;;;21.90;32.45
64294;BME280;50636;45.596;5.258;2023-03-15T08:27:30;98919.53;;;22.29;31.93
64294;BME280;50636;45.596;5.258;2023-03-15T08:29:55;98917.28;;;22.67;31.02
64294;BME280;50636;45.596;5.258;2023-03-15T08:32:21;98918.56;;;23.35;30.17
64294;BME280;50636;45.596;5.258;2023-03-15T08:34:47;98907.78;;;22.96;30.43
64294;BME280;50636;45.596;5.258;2023-03-15T08:37:12;98926.66;;;23.25;29.74
64294;BME280;50636;45.596;5.258;2023-03-15T08:39:38;98921.66;;;23.52;29.52
64294;BME280;50636;45.596;5.258;2023-03-15T08:42:05;98921.22;;;23.75;29.08
64294;BME280;50636;45.596;5.258;2023-03-15T08:44:31;98928.69;;;24.36;27.74
64294;BME280;50636;45.596;5.258;2023-03-15T08:46:57;98921.28;;;24.52;27.40
64294;BME280;50636;45.596;5.258;2023-03-15T08:49:23;98922.78;;;23.76;27.52
64294;BME280;50636;45.596;5.258;2023-03-15T08:51:48;98924.97;;;23.73;27.89
64294;BME280;50636;45.596;5.258;2023-03-15T08:54:14;98914.31;;;24.27;27.16
64294;BME280;50636;45.596;5.258;2023-03-15T08:56:40;98908.34;;;24.78;26.34
64294;BME280;50636;45.596;5.258;2023-03-15T08:59:07;98908.44;;;24.49;26.62
64294;BME280;50636;45.596;5.258;2023-03-15T09:01:32;98917.53;;;24.24;26.89
64294;BME280;50636;45.596;5.258;2023-03-15T09:03:59;98917.72;;;24.57;26.35
64294;BME280;50636;45.596;5.258;2023-03-15T09:06:26;98921.41;;;24.85;25.62
64294;BME280;50636;45.596;5.258;2023-03-15T09:08:53;98919.78;;;25.27;24.81
64294;BME280;50636;45.596;5.258;2023-03-15T09:11:19;98925.94;;;25.46;22.92
64294;BME280;50636;45.596;5.258;2023-03-15T09:13:45;98925.94;;;25.08;22.91
64294;BME280;50636;45.596;5.258;2023-03-15T09:16:11;98925.09;;;24.89;23.24
64294;BME280;50636;45.596;5.258;2023-03-15T09:18:36;98932.09;;;24.42;23.97
64294;BME280;50636;45.596;5.258;2023-03-15T09:21:05;98928.03;;;24.92;23.80
64294;BME280;50636;45.596;5.258;2023-03-15T09:23:31;98930.84;;;25.25;23.01
64294;BME280;50636;45.596;5.258;2023-03-15T09:25:57;98928.19;;;25.20;22.55
64294;BME280;50636;45.596;5.258;2023-03-15T09:28:22;98927.50;;;25.34;23.09
64294;BME280;50636;45.596;5.258;2023-03-15T09:30:50;98932.53;;;24.97;23.18
64294;BME280;50636;45.596;5.258;2023-03-15T09:33:16;98930.41;;;24.75;23.20
64294;BME280;50636;45.596;5.258;2023-03-15T09:35:42;98929.63;;;24.94;23.10
64294;BME280;50636;45.596;5.258;2023-03-15T09:38:08;98930.56;;;25.03;23.02
64294;BME280;50636;45.596;5.258;2023-03-15T09:40:39;98933.53;;;25.25;22.83
64294;BME280;50636;45.596;5.258;2023-03-15T09:48:46;98934.09;;;25.22;22.89
64294;BME280;50636;45.596;5.258;2023-03-15T09:51:37;98941.03;;;25.61;22.50
64294;BME280;50636;45.596;5.258;2023-03-15T09:59:45;98939.94;;;25.05;22.12
64294;BME280;50636;45.596;5.258;2023-03-15T10:04:43;98937.34;;;24.28;23.54
64294;BME280;50636;45.596;5.258;2023-03-15T10:07:13;98936.72;;;24.36;23.42
64294;BME280;50636;45.596;5.258;2023-03-15T10:09:41;98941.69;;;24.24;22.27
64294;BME280;50636;45.596;5.258;2023-03-15T10:12:14;98946.16;;;24.33;22.42
64294;BME280;50636;45.596;5.258;2023-03-15T10:20:22;98927.00;;;25.97;22.49
64294;BME280;50636;45.596;5.258;2023-03-15T10:22:58;98933.75;;;26.55;21.57
64294;BME280;50636;45.596;5.258;2023-03-15T10:25:28;98919.09;;;27.48;20.47
64294;BME280;50636;45.596;5.258;2023-03-15T10:30:34;98928.13;;;27.07;19.91
64294;BME280;50636;45.596;5.258;2023-03-15T10:33:25;98926.53;;;24.62;21.46
64294;BME280;50636;45.596;5.258;2023-03-15T10:35:52;98917.69;;;24.62;21.44
64294;BME280;50636;45.596;5.258;2023-03-15T10:38:20;98914.53;;;24.98;21.17
64294;BME280;50636;45.596;5.258;2023-03-15T10:40:51;98914.91;;;25.10;21.06
64294;BME280;50636;45.596;5.258;2023-03-15T10:43:26;98917.16;;;24.60;21.31
64294;BME280;50636;45.596;5.258;2023-03-15T10:46:05;98900.94;;;24.70;21.79
64294;BME280;50636;45.596;5.258;2023-03-15T10:48:35;98895.16;;;25.39;22.24
64294;BME280;50636;45.596;5.258;2023-03-15T10:51:18;98899.94;;;25.75;21.38
64294;BME280;50636;45.596;5.258;2023-03-15T10:56:44;98899.63;;;25.62;20.18
64294;BME280;50636;45.596;5.258;2023-03-15T10:59:25;98886.78;;;26.20;19.43
64294;BME280;50636;45.596;5.258;2023-03-15T11:01:54;98893.81;;;25.55;19.65
64294;BME280;50636;45.596;5.258;2023-03-15T11:04:31;98887.81;;;25.77;18.73
64294;BME280;50636;45.596;5.258;2023-03-15T11:09:25;98890.66;;;26.55;18.61
64294;BME280;50636;45.596;5.258;2023-03-15T11:12:01;98889.19;;;26.77;18.63
64294;BME280;50636;45.596;5.258;2023-03-15T11:14:43;98883.03;;;26.62;19.02
64294;BME280;50636;45.596;5.258;2023-03-15T11:17:22;98882.00;;;26.44;18.86
64294;BME280;50636;45.596;5.258;2023-03-15T11:19:55;98891.69;;;26.59;18.64
64294;BME280;50636;45.596;5.258;2023-03-15T11:22:22;98889.28;;;26.58;18.48
64294;BME280;50636;45.596;5.258;2023-03-15T11:24:48;98888.59;;;26.66;18.29
64294;BME280;50636;45.596;5.258;2023-03-15T11:27:16;98892.72;;;26.86;18.20
64294;BME280;50636;45.596;5.258;2023-03-15T11:29:56;98884.72;;;27.08;17.91
64294;BME280;50636;45.596;5.258;2023-03-15T11:32:30;98886.06;;;27.20;18.45
64294;BME280;50636;45.596;5.258;2023-03-15T11:35:03;98885.34;;;26.92;17.78
64294;BME280;50636;45.596;5.258;2023-03-15T11:40:16;98882.00;;;26.17;18.33
64294;BME280;50636;45.596;5.258;2023-03-15T11:45:41;98879.91;;;26.27;18.29
64294;BME280;50636;45.596;5.258;2023-03-15T11:48:17;98866.38;;;26.19;18.34
64294;BME280;50636;45.596;5.258;2023-03-15T11:50:44;98871.13;;;26.49;17.98
64294;BME280;50636;45.596;5.258;2023-03-15T11:53:13;98873.25;;;26.11;18.07
64294;BME280;50636;45.596;5.258;2023-03-15T11:55:41;98871.31;;;25.84;17.85
64294;BME280;50636;45.596;5.258;2023-03-15T11:58:33;98864.19;;;25.60;18.50
64294;BME280;50636;45.596;5.258;2023-03-15T12:01:03;98853.69;;;25.91;18.32
64294;BME280;50636;45.596;5.258;2023-03-15T12:03:43;98848.03;;;26.07;18.06
64294;BME280;50636;45.596;5.258;2023-03-15T12:06:33;98851.31;;;25.90;18.19
64294;BME280;50636;45.596;5.258;2023-03-15T12:08:59;98840.09;;;25.69;17.97
64294;BME280;50636;45.596;5.258;2023-03-15T12:16:31;98847.03;;;24.66;19.16
64294;BME280;50636;45.596;5.258;2023-03-15T12:19:10;98846.75;;;24.68;19.10
64294;BME280;50636;45.596;5.258;2023-03-15T12:21:43;98858.38;;;24.63;18.96
64294;BME280;50636;45.596;5.258;2023-03-15T12:24:26;98851.06;;;24.45;19.14
64294;BME280;50636;45.596;5.258;2023-03-15T12:27:13;98845.22;;;24.38;19.15
64294;BME280;50636;45.596;5.258;2023-03-15T12:29:40;98852.31;;;24.04;19.27
64294;BME280;50636;45.596;5.258;2023-03-15T12:32:13;98838.78;;;24.15;19.33
64294;BME280;50636;45.596;5.258;2023-03-15T12:34:54;98825.16;;;24.59;19.21
64294;BME280;50636;45.596;5.258;2023-03-15T12:37:29;98835.28;;;24.38;18.97
64294;BME280;50636;45.596;5.258;2023-03-15T12:55:57;98810.63;;;23.35;19.99
64294;BME280;50636;45.596;5.258;2023-03-15T12:58:36;98812.28;;;23.30;19.80
64294;BME280;50636;45.596;5.258;2023-03-15T13:01:05;98806.72;;;22.77;19.26
64294;BME280;50636;45.596;5.258;2023-03-15T13:03:34;98808.97;;;22.00;19.29
64294;BME280;50636;45.596;5.258;2023-03-15T13:06:20;98807.47;;;21.47;20.25
64294;BME280;50636;45.596;5.258;2023-03-15T13:09:16;98805.31;;;21.29;21.29
64294;BME280;50636;45.596;5.258;2023-03-15T13:12:12;98798.88;;;21.30;20.52
64294;BME280;50636;45.596;5.258;2023-03-15T13:14:43;98809.84;;;21.23;20.14
64294;BME280;50636;45.596;5.258;2023-03-15T13:17:23;98806.06;;;20.88;20.62
64294;BME280;50636;45.596;5.258;2023-03-15T13:20:36;98806.06;;;20.83;20.90
64294;BME280;50636;45.596;5.258;2023-03-15T13:23:20;98796.44;;;20.72;20.87
64294;BME280;50636;45.596;5.258;2023-03-15T13:26:27;98808.56;;;20.32;20.81
64294;BME280;50636;45.596;5.258;2023-03-15T13:29:03;98793.53;;;20.05;20.70
64294;BME280;50636;45.596;5.258;2023-03-15T13:31:34;98796.28;;;19.73;21.37
64294;BME280;50636;45.596;5.258;2023-03-15T13:36:40;98791.16;;;19.66;20.49
64294;BME280;50636;45.596;5.258;2023-03-15T13:39:23;98800.22;;;19.28;21.16
64294;BME280;50636;45.596;5.258;2023-03-15T13:44:23;98795.00;;;18.56;21.71
64294;BME280;50636;45.596;5.258;2023-03-15T13:46:50;98794.97;;;18.29;21.21
64294;BME280;50636;45.596;5.258;2023-03-15T13:49:18;98795.69;;;18.03;20.70
64294;BME280;50636;45.596;5.258;2023-03-15T13:51:45;98802.13;;;17.51;20.67
64294;BME280;50636;45.596;5.258;2023-03-15T13:54:38;98793.53;;;17.10;22.36
64294;BME280;50636;45.596;5.258;2023-03-15T13:57:15;98792.88;;;17.03;22.93
64294;BME280;50636;45.596;5.258;2023-03-15T13:59:56;98808.84;;;16.91;22.88
64294;BME280;50636;45.596;5.258;2023-03-15T14:02:35;98799.84;;;16.63;23.47
64294;BME280;50636;45.596;5.258;2023-03-15T14:05:05;98792.13;;;16.62;22.08
64294;BME280;50636;45.596;5.258;2023-03-15T14:07:35;98793.66;;;16.46;21.90
64294;BME280;50636;45.596;5.258;2023-03-15T14:10:21;98800.56;;;16.18;22.79
64294;BME280;50636;45.596;5.258;2023-03-15T14:12:48;98805.97;;;16.00;22.94
64294;BME280;50636;45.596;5.258;2023-03-15T14:15:20;98804.75;;;15.78;23.39
64294;BME280;50636;45.596;5.258;2023-03-15T14:20:38;98801.28;;;15.66;23.10
64294;BME280;50636;45.596;5.258;2023-03-15T14:23:09;98808.50;;;15.59;22.93
64294;BME280;50636;45.596;5.258;2023-03-15T14:25:36;98805.69;;;15.72;23.15
64294;BME280;50636;45.596;5.258;2023-03-15T14:28:03;98805.56;;;15.79;23.41
64294;BME280;50636;45.596;5.258;2023-03-15T14:30:33;98789.31;;;15.87;23.28
64294;BME280;50636;45.596;5.258;2023-03-15T14:33:02;98794.59;;;15.99;22.79
64294;BME280;50636;45.596;5.258;2023-03-15T14:38:21;98798.72;;;15.71;22.44
64294;BME280;50636;45.596;5.258;2023-03-15T14:40:48;98807.34;;;15.43;22.33
64294;BME280;50636;45.596;5.258;2023-03-15T14:43:14;98805.50;;;15.20;22.77
64294;BME280;50636;45.596;5.258;2023-03-15T14:45:42;98807.78;;;15.16;23.08
64294;BME280;50636;45.596;5.258;2023-03-15T14:48:29;98803.31;;;15.29;22.00
64294;BME280;50636;45.596;5.258;2023-03-15T14:50:57;98805.16;;;15.28;22.13
64294;BME280;50636;45.596;5.258;2023-03-15T14:53:24;98806.50;;;15.19;22.46
64294;BME280;50636;45.596;5.258;2023-03-15T14:55:51;98804.19;;;15.11;21.92
64294;BME280;50636;45.596;5.258;2023-03-15T14:58:19;98800.88;;;15.04;22.29
64294;BME280;50636;45.596;5.258;2023-03-15T15:00:50;98805.56;;;15.02;21.59
64294;BME280;50636;45.596;5.258;2023-03-15T15:03:33;98807.72;;;14.93;21.64
64294;BME280;50636;45.596;5.258;2023-03-15T15:06:03;98802.53;;;14.86;21.17
64294;BME280;50636;45.596;5.258;2023-03-15T15:08:30;98812.25;;;14.74;21.09
64294;BME280;50636;45.596;5.258;2023-03-15T15:10:56;98806.50;;;14.65;21.19